createdAt,value
2023-04-15T00:01:30.431Z,89.05
2023-04-15T00:03:35.278Z,87.93
2023-04-15T00:05:38.752Z,88.14
2023-04-15T00:07:41.828Z,89.03
2023-04-15T00:09:45.160Z,87.52
2023-04-15T00:11:48.416Z,87.65
2023-04-15T00:13:51.543Z,88.33
2023-04-15T00:15:54.405Z,88.57
2023-04-15T00:17:57.423Z,88.58
2023-04-15T00:20:01.906Z,89.27
2023-04-15T00:22:04.980Z,88.18
2023-04-15T00:24:08.008Z,89.19
2023-04-15T00:26:10.921Z,88.16
2023-04-15T00:28:14.226Z,88.58
2023-04-15T00:30:18.918Z,88.89
2023-04-15T00:32:22.316Z,90.45
2023-04-15T00:34:25.217Z,88.73
2023-04-15T00:36:29.908Z,90.49
2023-04-15T00:38:32.900Z,89.46
2023-04-15T00:40:35.855Z,90.31
2023-04-15T00:42:39.665Z,91.90
2023-04-15T00:44:43.070Z,90.94
2023-04-15T00:46:47.070Z,90.18
2023-04-15T00:48:52.206Z,90.51
2023-04-15T00:50:55.203Z,91.70
2023-04-15T00:52:59.562Z,91.56
2023-04-15T00:55:02.880Z,91.82
2023-04-15T00:57:07.186Z,92.82
2023-04-15T00:59:10.404Z,92.49
2023-04-15T01:01:13.619Z,92.16
2023-04-15T01:03:16.663Z,91.00
2023-04-15T01:05:19.975Z,91.01
2023-04-15T01:07:22.862Z,93.05
2023-04-15T01:09:27.650Z,91.91
2023-04-15T01:11:34.610Z,93.03
2023-04-15T01:13:37.653Z,92.14
2023-04-15T01:15:40.898Z,91.22
2023-04-15T01:17:43.943Z,92.16
2023-04-15T01:19:46.949Z,91.36
2023-04-15T01:21:50.334Z,93.70
2023-04-15T01:23:57.141Z,92.59
2023-04-15T01:26:02.017Z,93.93
2023-04-15T01:28:05.430Z,94.42
2023-04-15T01:30:10.907Z,94.07
2023-04-15T01:32:13.769Z,93.50
2023-04-15T01:34:35.935Z,93.80
2023-04-15T01:36:57.473Z,93.09
2023-04-15T01:39:00.748Z,93.86
2023-04-15T01:41:07.174Z,93.28
2023-04-15T01:43:11.391Z,93.69
2023-04-15T01:45:15.731Z,94.71
2023-04-15T01:47:20.039Z,94.27
2023-04-15T01:49:25.035Z,94.61
2023-04-15T01:51:31.353Z,93.28
2023-04-15T01:53:36.154Z,94.08
2023-04-15T01:55:41.570Z,93.02
2023-04-15T01:57:47.729Z,95.19
2023-04-15T01:59:51.976Z,93.80
2023-04-15T02:01:56.550Z,93.21
2023-04-15T02:04:01.443Z,93.35
2023-04-15T02:06:08.355Z,94.43
2023-04-15T02:08:12.838Z,94.36
2023-04-15T02:10:17.499Z,94.54
2023-04-15T02:12:21.637Z,94.97
2023-04-15T02:14:27.427Z,94.67
2023-04-15T02:16:31.779Z,93.54
2023-04-15T02:18:35.883Z,93.89
2023-04-15T02:20:40.075Z,94.46
2023-04-15T02:22:44.427Z,94.41
2023-04-15T02:24:48.887Z,94.25
2023-04-15T02:26:53.190Z,94.45
2023-04-15T02:28:59.081Z,93.92
2023-04-15T02:31:08.412Z,92.20
2023-04-15T02:33:12.720Z,93.05
2023-04-15T02:35:16.958Z,92.13
2023-04-15T02:37:22.340Z,91.58
2023-04-15T02:39:26.757Z,89.76
2023-04-15T02:41:31.508Z,90.02
2023-04-15T02:43:36.358Z,89.75
2023-04-15T02:45:40.762Z,88.31
2023-04-15T02:47:47.638Z,88.28
2023-04-15T02:49:52.046Z,90.04
2023-04-15T02:51:56.196Z,88.49
2023-04-15T02:54:00.362Z,89.51
2023-04-15T02:56:06.462Z,88.00
2023-04-15T02:58:11.355Z,87.79
2023-04-15T03:00:16.547Z,87.30
2023-04-15T03:02:23.807Z,87.49
2023-04-15T03:04:31.173Z,87.40
2023-04-15T03:06:35.458Z,86.87
2023-04-15T03:08:39.604Z,86.14
2023-04-15T03:10:43.857Z,85.23
2023-04-15T03:12:48.052Z,85.34
2023-04-15T03:14:58.043Z,85.18
2023-04-15T03:17:10.141Z,86.01
2023-04-15T03:19:15.895Z,86.24
2023-04-15T03:21:22.462Z,86.47
2023-04-15T03:23:26.852Z,86.73
2023-04-15T03:25:31.852Z,86.79
2023-04-15T03:27:39.008Z,87.24
2023-04-15T03:29:42.886Z,86.66
2023-04-15T03:31:47.435Z,86.95
2023-04-15T03:33:51.755Z,87.58
2023-04-15T03:35:56.025Z,86.92
2023-04-15T03:38:01.806Z,87.26
2023-04-15T03:40:07.701Z,87.11
2023-04-15T03:42:12.143Z,87.99
2023-04-15T03:44:16.684Z,88.49
2023-04-15T03:46:21.211Z,88.37
2023-04-15T03:48:25.675Z,88.38
2023-04-15T03:50:29.999Z,88.69
2023-04-15T03:52:34.177Z,89.03
2023-04-15T03:54:39.816Z,89.00
2023-04-15T03:56:44.036Z,88.37
2023-04-15T03:58:48.070Z,88.13
2023-04-15T04:00:52.861Z,88.63
2023-04-15T04:02:57.355Z,88.91
2023-04-15T04:05:01.735Z,88.29
2023-04-15T04:07:05.951Z,87.95
2023-04-15T04:09:10.135Z,88.04
2023-04-15T04:11:15.783Z,88.08
2023-04-15T04:13:19.967Z,87.80
2023-04-15T04:15:24.094Z,87.53
2023-04-15T04:17:28.363Z,88.09
2023-04-15T04:19:32.815Z,88.48
2023-04-15T04:21:37.036Z,88.07
2023-04-15T04:23:41.359Z,87.98
2023-04-15T04:25:45.634Z,88.72
2023-04-15T04:27:51.337Z,89.21
2023-04-15T04:29:55.033Z,88.47
2023-04-15T04:31:59.245Z,88.54
2023-04-15T04:34:03.398Z,88.35
2023-04-15T04:36:08.159Z,88.78
2023-04-15T04:38:12.471Z,88.76
2023-04-15T04:40:17.112Z,89.32
2023-04-15T04:42:21.308Z,89.04
2023-04-15T04:44:27.450Z,89.01
2023-04-15T04:46:31.594Z,89.29
2023-04-15T04:48:35.761Z,89.36
2023-04-15T04:50:40.148Z,89.59
2023-04-15T04:52:44.291Z,90.27
2023-04-15T04:54:48.430Z,90.50
2023-04-15T04:56:52.542Z,90.30
2023-04-15T04:58:56.799Z,89.84
2023-04-15T05:01:03.466Z,90.26
2023-04-15T05:03:07.750Z,90.13
2023-04-15T05:05:12.324Z,90.63
2023-04-15T05:07:16.536Z,90.79
2023-04-15T05:09:20.855Z,91.24
2023-04-15T05:11:25.011Z,91.36
2023-04-15T05:13:30.430Z,91.36
2023-04-15T05:15:37.173Z,91.89
2023-04-15T05:17:42.805Z,91.78
2023-04-15T05:19:47.172Z,92.00
2023-04-15T05:21:51.437Z,90.87
2023-04-15T05:23:55.882Z,91.08
2023-04-15T05:25:59.984Z,89.64
2023-04-15T05:28:04.128Z,89.82
2023-04-15T05:30:09.885Z,88.07
2023-04-15T05:32:15.241Z,88.76
2023-04-15T05:34:20.793Z,88.03
2023-04-15T05:36:24.966Z,88.33
2023-04-15T05:38:29.062Z,88.59
2023-04-15T05:40:33.278Z,86.86
2023-04-15T05:42:37.679Z,85.74
2023-04-15T05:44:42.037Z,85.05
2023-04-15T05:46:46.121Z,84.27
2023-04-15T05:48:50.413Z,84.35
2023-04-15T05:50:56.367Z,84.83
2023-04-15T05:53:01.112Z,84.60
2023-04-15T05:55:05.884Z,85.21
2023-04-15T05:57:10.008Z,82.91
2023-04-15T05:59:14.134Z,83.43
2023-04-15T06:01:18.444Z,82.82
2023-04-15T06:03:23.409Z,82.14
2023-04-15T06:05:28.213Z,83.81
2023-04-15T06:07:34.023Z,81.29
2023-04-15T06:09:38.200Z,80.71
2023-04-15T06:11:42.543Z,81.84
2023-04-15T06:13:46.695Z,80.06
2023-04-15T06:15:51.140Z,81.40
2023-04-15T06:17:55.337Z,79.57
2023-04-15T06:19:59.457Z,79.92
2023-04-15T06:22:04.160Z,78.89
2023-04-15T06:24:09.864Z,76.23
2023-04-15T06:26:14.126Z,75.50
2023-04-15T06:28:18.324Z,76.91
2023-04-15T06:30:24.389Z,75.30
2023-04-15T06:32:29.206Z,76.59
2023-04-15T06:34:33.431Z,75.91
2023-04-15T06:36:37.529Z,75.44
2023-04-15T06:38:41.830Z,78.15
2023-04-15T06:40:47.391Z,76.69
2023-04-15T06:42:51.371Z,77.75
2023-04-15T06:44:55.455Z,76.79
2023-04-15T06:46:59.571Z,77.03
2023-04-15T06:49:04.150Z,75.88
2023-04-15T06:51:08.482Z,78.93
2023-04-15T06:53:12.694Z,77.66
2023-04-15T06:55:17.002Z,78.92
2023-04-15T06:57:22.641Z,76.88
2023-04-15T06:59:27.621Z,76.66
2023-04-15T07:01:32.203Z,76.45
2023-04-15T07:03:36.593Z,75.34
2023-04-15T07:05:40.815Z,75.46
2023-04-15T07:07:45.752Z,73.68
2023-04-15T07:09:50.078Z,72.37
2023-04-15T07:11:54.190Z,67.34
2023-04-15T07:14:00.162Z,65.32
2023-04-15T07:16:04.710Z,66.36
2023-04-15T07:18:09.956Z,65.36
2023-04-15T07:20:14.380Z,65.57
2023-04-15T07:22:18.475Z,66.44
2023-04-15T07:24:23.667Z,65.72
2023-04-15T07:26:27.827Z,65.17
2023-04-15T07:28:32.240Z,63.99
2023-04-15T07:30:38.738Z,60.34
2023-04-15T07:32:43.295Z,58.83
2023-04-15T07:34:47.470Z,59.66
2023-04-15T07:36:52.404Z,53.26
2023-04-15T07:38:56.561Z,49.04
2023-04-15T07:41:00.704Z,52.90
2023-04-15T07:43:04.912Z,51.06
2023-04-15T07:45:10.296Z,51.28
2023-04-15T07:47:16.044Z,51.88
2023-04-15T07:49:21.638Z,51.03
2023-04-15T07:51:26.045Z,53.06
2023-04-15T07:53:30.774Z,49.74
2023-04-15T07:55:34.868Z,49.63
2023-04-15T07:57:39.181Z,49.61
2023-04-15T07:59:43.288Z,51.75
2023-04-15T08:01:47.523Z,54.61
2023-04-15T08:03:53.550Z,56.79
2023-04-15T08:05:58.037Z,58.53
2023-04-15T08:08:02.343Z,52.89
2023-04-15T08:10:07.874Z,53.09
2023-04-15T08:12:13.756Z,56.22
2023-04-15T08:14:17.866Z,53.53
2023-04-15T08:16:23.979Z,53.71
2023-04-15T08:18:28.152Z,55.97
2023-04-15T08:20:34.234Z,56.82
2023-04-15T08:22:38.393Z,56.71
2023-04-15T08:24:42.511Z,49.97
2023-04-15T08:26:47.531Z,47.55
2023-04-15T08:28:51.992Z,45.97
2023-04-15T08:30:56.352Z,46.39
2023-04-15T08:33:01.524Z,45.76
2023-04-15T08:35:06.847Z,46.47
2023-04-15T08:37:12.819Z,44.88
2023-04-15T08:39:17.039Z,45.29
2023-04-15T08:41:26.512Z,46.51
2023-04-15T08:43:35.366Z,45.14
2023-04-15T08:45:40.114Z,44.73
2023-04-15T08:47:46.185Z,48.68
2023-04-15T08:49:54.281Z,45.70
2023-04-15T08:52:00.258Z,46.04
2023-04-15T08:54:05.863Z,47.46
2023-04-15T08:56:12.119Z,47.73
2023-04-15T08:58:17.333Z,46.65
2023-04-15T09:00:22.574Z,46.86
2023-04-15T09:02:27.924Z,46.82
2023-04-15T09:04:32.475Z,49.85
2023-04-15T09:06:36.665Z,48.01
2023-04-15T09:08:40.965Z,55.93
2023-04-15T09:10:46.584Z,50.87
2023-04-15T09:12:50.822Z,49.66
2023-04-15T09:14:55.565Z,50.26
2023-04-15T09:17:01.365Z,48.61
2023-04-15T09:19:23.076Z,47.65
2023-04-15T09:21:28.161Z,46.48
2023-04-15T09:23:33.371Z,46.49
2023-04-15T09:25:38.351Z,46.34
2023-04-15T09:27:50.150Z,44.93
2023-04-15T09:29:54.683Z,48.16
2023-04-15T09:32:11.169Z,51.41
2023-04-15T09:34:15.368Z,50.72
2023-04-15T09:36:19.665Z,50.72
2023-04-15T09:38:23.902Z,49.05
2023-04-15T09:40:36.313Z,46.90
2023-04-15T09:45:13.109Z,48.12
2023-04-15T09:47:29.698Z,43.57
2023-04-15T09:49:34.613Z,40.86
2023-04-15T09:51:39.110Z,42.56
2023-04-15T09:53:43.280Z,43.42
2023-04-15T09:55:50.869Z,41.61
2023-04-15T09:57:55.372Z,39.91
2023-04-15T09:59:59.949Z,40.65
2023-04-15T10:02:07.899Z,40.97
2023-04-15T10:04:12.752Z,38.94
2023-04-15T10:06:17.413Z,40.81
2023-04-15T10:08:24.165Z,44.89
2023-04-15T10:10:28.263Z,41.50
2023-04-15T10:12:33.871Z,42.50
2023-04-15T10:14:39.002Z,42.40
2023-04-15T10:16:49.294Z,42.68
2023-04-15T10:18:57.454Z,44.99
2023-04-15T10:21:02.323Z,45.35
2023-04-15T10:23:09.440Z,43.44
2023-04-15T10:25:16.883Z,44.48
2023-04-15T10:27:22.404Z,45.98
2023-04-15T10:29:30.114Z,43.44
2023-04-15T10:31:36.230Z,43.17
2023-04-15T10:33:41.007Z,46.16
2023-04-15T10:35:49.347Z,45.31
2023-04-15T10:37:53.618Z,49.40
2023-04-15T10:39:58.288Z,49.66
2023-04-15T10:42:07.893Z,51.02
2023-04-15T10:44:12.196Z,46.13
2023-04-15T10:46:21.268Z,44.83
2023-04-15T10:48:25.478Z,43.21
2023-04-15T10:50:31.722Z,44.17
2023-04-15T10:52:44.695Z,43.14
2023-04-15T10:54:49.194Z,42.08
2023-04-15T10:57:08.627Z,46.50
2023-04-15T10:59:12.920Z,42.48
2023-04-15T11:01:17.235Z,42.01
2023-04-15T11:03:39.065Z,44.38
2023-04-15T11:05:53.689Z,42.16
2023-04-15T11:07:59.574Z,43.25
2023-04-15T11:10:03.920Z,42.97
2023-04-15T11:12:10.019Z,43.23
2023-04-15T11:14:19.428Z,45.03
2023-04-15T11:16:23.957Z,44.92
2023-04-15T11:18:33.269Z,45.46
2023-04-15T11:20:38.067Z,43.56
2023-04-15T11:22:48.442Z,45.85
2023-04-15T11:24:54.989Z,44.61
2023-04-15T11:26:59.309Z,46.21
2023-04-15T11:29:03.705Z,45.30
2023-04-15T11:31:11.560Z,44.50
2023-04-15T11:33:15.799Z,42.06
2023-04-15T11:35:20.358Z,42.20
2023-04-15T11:37:30.032Z,41.88
2023-04-15T11:39:34.233Z,43.58
2023-04-15T11:41:43.389Z,44.90
2023-04-15T11:43:47.479Z,44.09
2023-04-15T11:45:55.024Z,46.63
2023-04-15T11:48:07.114Z,46.97
2023-04-15T11:50:18.707Z,46.38
2023-04-15T11:52:21.913Z,46.57
2023-04-15T11:54:24.972Z,47.04
2023-04-15T11:56:28.110Z,45.77
2023-04-15T11:58:34.676Z,45.59
2023-04-15T12:00:38.388Z,47.19
2023-04-15T12:02:41.768Z,49.19
2023-04-15T12:04:44.821Z,49.09
2023-04-15T12:06:47.832Z,49.99
2023-04-15T12:08:55.776Z,51.48
2023-04-15T12:11:00.041Z,50.95
2023-04-15T12:13:07.409Z,50.64
2023-04-15T12:15:12.221Z,49.96
2023-04-15T12:17:15.108Z,49.95
2023-04-15T12:19:23.186Z,49.83
2023-04-15T12:21:27.991Z,50.61
2023-04-15T12:23:31.255Z,49.23
2023-04-15T12:25:35.855Z,49.73
2023-04-15T12:27:39.005Z,48.33
2023-04-15T12:29:46.230Z,47.72
2023-04-15T12:31:52.462Z,46.81
2023-04-15T12:33:56.562Z,44.41
2023-04-15T12:35:59.703Z,46.45
2023-04-15T12:38:02.593Z,45.74
2023-04-15T12:40:09.723Z,44.80
2023-04-15T12:42:13.282Z,45.03
2023-04-15T12:44:16.192Z,45.91
2023-04-15T12:46:19.294Z,44.33
2023-04-15T12:48:23.889Z,45.92
2023-04-15T12:50:26.723Z,42.62
2023-04-15T12:52:29.650Z,41.57
2023-04-15T12:54:32.914Z,42.03
2023-04-15T12:56:36.233Z,43.47
2023-04-15T12:58:39.033Z,44.15
2023-04-15T13:00:41.990Z,43.47
2023-04-15T13:02:45.626Z,42.42
2023-04-15T13:04:50.139Z,42.58
2023-04-15T13:06:53.126Z,45.85
2023-04-15T13:08:58.758Z,44.57
2023-04-15T13:11:01.966Z,43.87
2023-04-15T13:13:05.482Z,44.68
2023-04-15T13:15:11.718Z,44.54
2023-04-15T13:17:14.771Z,44.92
2023-04-15T13:19:17.920Z,44.93
2023-04-15T13:21:22.390Z,47.81
2023-04-15T13:23:25.363Z,48.54
2023-04-15T13:25:28.382Z,47.63
2023-04-15T13:27:31.963Z,48.54
2023-04-15T13:29:34.953Z,47.46
2023-04-15T13:31:37.982Z,45.81
2023-04-15T13:33:41.393Z,43.73
2023-04-15T13:35:44.460Z,47.73
2023-04-15T13:37:49.115Z,45.16
2023-04-15T13:39:52.168Z,44.26
2023-04-15T13:41:56.303Z,44.78
2023-04-15T13:43:59.284Z,45.85
2023-04-15T13:46:02.774Z,43.63
2023-04-15T13:48:06.383Z,44.20
2023-04-15T13:50:10.088Z,45.11
2023-04-15T13:52:13.236Z,44.81
2023-04-15T13:54:17.880Z,46.00
2023-04-15T13:56:21.825Z,47.12
2023-04-15T13:58:25.034Z,46.51
2023-04-15T14:00:27.934Z,48.19
2023-04-15T14:02:31.273Z,45.76
2023-04-15T14:04:34.279Z,49.01
2023-04-15T14:06:37.417Z,47.68
2023-04-15T14:08:40.422Z,48.68
2023-04-15T14:10:48.728Z,47.78
2023-04-15T14:12:51.725Z,47.25
2023-04-15T14:14:54.873Z,50.07
2023-04-15T14:16:57.956Z,47.65
2023-04-15T14:19:01.477Z,48.05
2023-04-15T14:21:06.800Z,48.95
2023-04-15T14:23:10.196Z,46.04
2023-04-15T14:25:20.150Z,45.98
2023-04-15T14:27:35.200Z,44.17
2023-04-15T14:29:38.184Z,44.56
2023-04-15T14:31:41.232Z,45.22
2023-04-15T14:33:46.609Z,43.46
2023-04-15T14:35:50.387Z,46.41
2023-04-15T14:37:53.791Z,45.80
2023-04-15T14:39:56.788Z,44.93
2023-04-15T14:41:59.711Z,45.33
2023-04-15T14:44:04.148Z,44.68
2023-04-15T14:46:07.395Z,43.37
2023-04-15T14:48:10.759Z,45.11
2023-04-15T14:50:13.636Z,44.80
2023-04-15T14:52:17.049Z,44.49
2023-04-15T14:54:21.850Z,44.14
2023-04-15T14:56:25.262Z,43.96
2023-04-15T14:58:28.273Z,46.46
2023-04-15T15:00:32.990Z,45.79
2023-04-15T15:02:40.148Z,46.20
2023-04-15T15:04:43.513Z,47.81
2023-04-15T15:06:49.008Z,47.87
2023-04-15T15:08:52.303Z,48.44
2023-04-15T15:10:55.103Z,49.26
2023-04-15T15:12:58.236Z,48.94
2023-04-15T15:15:03.089Z,49.55
2023-04-15T15:17:10.307Z,48.65
2023-04-15T15:19:13.272Z,49.73
2023-04-15T15:21:16.235Z,48.80
2023-04-15T15:23:19.183Z,49.45
2023-04-15T15:25:22.273Z,49.81
2023-04-15T15:27:25.144Z,48.27
2023-04-15T15:29:28.238Z,48.25
2023-04-15T15:31:31.561Z,50.50
2023-04-15T15:33:36.195Z,50.47
2023-04-15T15:35:39.957Z,49.20
2023-04-15T15:37:43.669Z,49.99
2023-04-15T15:39:46.552Z,48.03
2023-04-15T15:41:50.318Z,48.37
2023-04-15T15:43:53.835Z,49.10
2023-04-15T15:45:56.854Z,49.56
2023-04-15T15:48:00.485Z,49.74
2023-04-15T15:50:06.217Z,51.38
2023-04-15T15:52:09.396Z,51.21
2023-04-15T15:54:12.385Z,51.15
2023-04-15T15:56:15.358Z,49.46
2023-04-15T15:58:18.302Z,50.77
2023-04-15T16:00:22.182Z,50.79
2023-04-15T16:02:45.839Z,50.76
2023-04-15T16:04:50.541Z,50.43
2023-04-15T16:06:55.023Z,52.00
2023-04-15T16:08:57.973Z,50.29
2023-04-15T16:11:01.129Z,52.10
2023-04-15T16:13:03.993Z,52.00
2023-04-15T16:15:07.928Z,52.96
2023-04-15T16:17:11.051Z,52.89
2023-04-15T16:19:14.371Z,53.45
2023-04-15T16:21:17.262Z,53.63
2023-04-15T16:23:21.945Z,54.56
2023-04-15T16:25:25.561Z,54.97
2023-04-15T16:27:28.794Z,55.37
2023-04-15T16:29:31.852Z,56.31
2023-04-15T16:31:35.171Z,56.62
2023-04-15T16:33:38.073Z,55.71
2023-04-15T16:35:41.163Z,57.69
2023-04-15T16:37:44.043Z,57.96
2023-04-15T16:39:48.678Z,59.11
2023-04-15T16:41:51.610Z,60.25
2023-04-15T16:43:59.092Z,61.29
2023-04-15T16:46:02.309Z,63.70
2023-04-15T16:48:05.609Z,65.42
2023-04-15T16:50:09.674Z,66.62
2023-04-15T16:52:12.633Z,66.66
2023-04-15T16:54:15.722Z,67.08
2023-04-15T16:56:21.854Z,68.78
2023-04-15T16:58:24.703Z,69.28
2023-04-15T17:00:27.901Z,70.06
2023-04-15T17:02:31.604Z,70.40
2023-04-15T17:04:35.378Z,71.91
2023-04-15T17:06:39.281Z,72.94
2023-04-15T17:08:42.401Z,71.93
2023-04-15T17:10:45.717Z,75.44
2023-04-15T17:12:52.456Z,74.05
2023-04-15T17:14:55.629Z,75.77
2023-04-15T17:16:58.789Z,74.71
2023-04-15T17:19:01.898Z,77.96
2023-04-15T17:21:08.788Z,78.19
2023-04-15T17:23:14.149Z,81.75
2023-04-15T17:25:17.297Z,84.13
2023-04-15T17:27:26.808Z,83.46
2023-04-15T17:29:31.540Z,83.31
2023-04-15T17:31:35.242Z,84.04
2023-04-15T17:34:06.378Z,85.98
2023-04-15T17:36:31.889Z,84.93
2023-04-15T17:38:56.383Z,85.60
2023-04-15T17:41:19.451Z,86.26
2023-04-15T17:43:42.233Z,86.26
2023-04-15T17:46:07.674Z,85.45
2023-04-15T17:48:30.502Z,84.30
2023-04-15T17:50:53.629Z,87.56
2023-04-15T17:53:37.887Z,88.55
2023-04-15T17:56:47.108Z,84.27
2023-04-15T17:59:54.722Z,85.61
2023-04-15T18:03:02.830Z,88.72
2023-04-15T18:05:27.243Z,88.44
2023-04-15T18:07:51.820Z,89.15
2023-04-15T18:10:17.700Z,88.97
2023-04-15T18:13:05.844Z,89.93
2023-04-15T18:15:38.424Z,88.37
2023-04-15T18:18:04.475Z,89.52
2023-04-15T18:20:08.626Z,90.22
2023-04-15T18:22:11.631Z,89.59
2023-04-15T18:24:15.839Z,90.07
2023-04-15T18:26:18.876Z,90.69
2023-04-15T18:28:22.885Z,89.93
2023-04-15T18:30:25.788Z,90.81
2023-04-15T18:32:31.904Z,88.00
2023-04-15T18:34:36.357Z,89.08
2023-04-15T18:36:39.154Z,88.13
2023-04-15T18:38:42.232Z,90.39
2023-04-15T18:40:45.153Z,90.94
2023-04-15T18:42:48.021Z,90.99
2023-04-15T18:44:51.028Z,89.96
2023-04-15T18:46:53.918Z,89.31
2023-04-15T18:48:56.730Z,89.50
2023-04-15T18:51:01.017Z,89.04
2023-04-15T18:53:03.792Z,91.37
2023-04-15T18:55:07.822Z,91.79
2023-04-15T18:57:11.031Z,92.69
2023-04-15T18:59:28.876Z,92.28
2023-04-15T19:01:33.206Z,90.74
2023-04-15T19:03:36.848Z,90.67
2023-04-15T19:05:40.351Z,92.33
2023-04-15T19:07:44.797Z,91.86
2023-04-15T19:09:47.634Z,92.32
2023-04-15T19:11:50.660Z,92.39
2023-04-15T19:13:53.430Z,91.12
2023-04-15T19:15:56.600Z,90.02
2023-04-15T19:17:59.407Z,92.16
2023-04-15T19:20:02.490Z,91.25
2023-04-15T19:22:06.167Z,92.07
2023-04-15T19:24:10.681Z,91.76
2023-04-15T19:26:13.613Z,90.95
2023-04-15T19:28:16.760Z,90.81
2023-04-15T19:30:19.778Z,91.36
2023-04-15T19:32:22.711Z,90.89
2023-04-15T19:34:25.724Z,90.93
2023-04-15T19:36:28.882Z,91.32
2023-04-15T19:38:31.897Z,91.21
2023-04-15T19:40:36.464Z,92.23
2023-04-15T19:42:39.304Z,92.91
2023-04-15T19:44:43.144Z,93.05
2023-04-15T19:46:50.181Z,93.25
2023-04-15T19:48:53.854Z,93.92
2023-04-15T19:50:57.835Z,93.67
2023-04-15T19:53:00.804Z,92.92
2023-04-15T19:55:04.223Z,92.69
2023-04-15T19:57:08.634Z,91.40
2023-04-15T19:59:13.144Z,93.53
2023-04-15T20:01:16.133Z,92.66
2023-04-15T20:03:19.430Z,91.63
2023-04-15T20:05:22.915Z,92.75
2023-04-15T20:07:27.976Z,93.35
2023-04-15T20:09:36.370Z,92.66
2023-04-15T20:12:09.621Z,92.64
2023-04-15T20:14:12.547Z,94.31
2023-04-15T20:16:43.247Z,93.54
2023-04-15T20:19:21.851Z,93.59
2023-04-15T20:21:35.935Z,93.15
2023-04-15T20:23:39.089Z,92.77
2023-04-15T20:25:42.659Z,93.50
2023-04-15T20:27:45.675Z,93.64
2023-04-15T20:29:50.250Z,93.41
2023-04-15T20:31:53.126Z,94.70
2023-04-15T20:33:56.189Z,94.26
2023-04-15T20:36:00.003Z,93.38
2023-04-15T20:38:04.469Z,94.05
2023-04-15T20:40:08.642Z,93.38
2023-04-15T20:42:11.597Z,94.39
2023-04-15T20:44:14.542Z,93.24
2023-04-15T20:46:21.364Z,92.99
2023-04-15T20:48:24.803Z,93.22
2023-04-15T20:50:27.840Z,92.52
2023-04-15T20:52:30.654Z,93.97
2023-04-15T20:54:34.034Z,93.54
2023-04-15T20:56:36.904Z,94.78
2023-04-15T20:58:39.798Z,92.57
2023-04-15T21:00:42.829Z,93.92
2023-04-15T21:02:47.548Z,93.24
2023-04-15T21:04:50.686Z,92.73
2023-04-15T21:06:53.715Z,92.87
2023-04-15T21:08:56.635Z,94.13
2023-04-15T21:10:59.598Z,92.66
2023-04-15T21:13:02.855Z,93.61
2023-04-15T21:15:06.609Z,93.91
2023-04-15T21:17:11.209Z,95.08
2023-04-15T21:19:15.821Z,93.38
2023-04-15T21:21:18.715Z,93.01
2023-04-15T21:23:21.628Z,94.10
2023-04-15T21:25:24.571Z,93.47
2023-04-15T21:27:27.552Z,92.62
2023-04-15T21:29:30.513Z,92.94
2023-04-15T21:31:33.514Z,93.91
2023-04-15T21:33:36.434Z,93.18
2023-04-15T21:35:40.918Z,92.61
2023-04-15T21:37:43.750Z,92.78
2023-04-15T21:39:46.646Z,93.99
2023-04-15T21:41:50.107Z,92.82
2023-04-15T21:43:53.476Z,93.80
2023-04-15T21:46:23.293Z,93.57
2023-04-15T21:48:19.238Z,92.66
2023-04-15T21:50:23.043Z,92.84
2023-04-15T21:52:27.451Z,92.46
2023-04-15T21:54:31.489Z,93.93
2023-04-15T21:56:34.555Z,94.60
2023-04-15T21:58:37.544Z,93.70
2023-04-15T22:00:40.976Z,92.42
2023-04-15T22:02:44.109Z,94.68
2023-04-15T22:04:47.192Z,93.23
2023-04-15T22:06:50.029Z,93.38
2023-04-15T22:08:57.487Z,94.28
2023-04-15T22:11:00.991Z,94.03
2023-04-15T22:13:07.430Z,94.37
2023-04-15T22:15:10.925Z,93.63
2023-04-15T22:17:14.014Z,93.56
2023-04-15T22:19:16.855Z,93.97
2023-04-15T22:21:20.097Z,93.02
2023-04-15T22:23:23.033Z,92.99
2023-04-15T22:25:27.516Z,93.81
2023-04-15T22:27:30.591Z,95.00
2023-04-15T22:29:33.557Z,93.73
2023-04-15T22:31:36.532Z,94.85
2023-04-15T22:33:39.433Z,94.85
2023-04-15T22:35:42.353Z,93.27
2023-04-15T22:37:45.295Z,93.67
2023-04-15T22:39:48.232Z,93.90
2023-04-15T22:41:52.682Z,93.86
2023-04-15T22:43:55.830Z,92.65
2023-04-15T22:45:58.780Z,94.48
2023-04-15T22:48:03.036Z,92.73
2023-04-15T22:50:07.258Z,93.44
2023-04-15T22:52:14.510Z,93.25
2023-04-15T22:54:23.100Z,92.52
2023-04-15T22:56:26.333Z,93.67
2023-04-15T22:58:32.332Z,93.10
2023-04-15T23:00:35.170Z,93.98
2023-04-15T23:02:38.175Z,94.34
2023-04-15T23:04:41.469Z,93.44
2023-04-15T23:06:44.750Z,93.16
2023-04-15T23:08:48.168Z,94.60
2023-04-15T23:10:51.439Z,92.88
2023-04-15T23:12:54.649Z,94.05
2023-04-15T23:14:59.220Z,93.48
2023-04-15T23:17:02.107Z,92.66
2023-04-15T23:19:05.279Z,93.64
2023-04-15T23:21:08.041Z,92.66
2023-04-15T23:23:10.981Z,92.45
2023-04-15T23:25:13.971Z,93.06
2023-04-15T23:27:19.209Z,93.98
2023-04-15T23:29:22.331Z,92.69
2023-04-15T23:31:26.782Z,94.03
2023-04-15T23:33:30.344Z,94.23
2023-04-15T23:35:33.439Z,93.48
2023-04-15T23:37:36.217Z,93.00
2023-04-15T23:39:39.161Z,93.18
2023-04-15T23:41:42.119Z,93.85
2023-04-15T23:43:45.234Z,93.70
2023-04-15T23:45:48.342Z,93.30
2023-04-15T23:47:53.109Z,93.83
2023-04-15T23:49:56.717Z,93.64
2023-04-15T23:51:59.694Z,94.61
2023-04-15T23:54:02.685Z,94.71
2023-04-15T23:56:06.502Z,93.77
2023-04-15T23:58:09.389Z,93.98
